Time;durP1;ratioP1;P1;durP2;ratioP2;P2;SDS_P1;SDS_P2;PMS_P1;PMS_P2;Temp;Humidity;BMP_temperature;BMP_pressure;BME280_temperature;BME280_humidity;BME280_pressure;Samples;Min_cycle;Max_cycle;Signal;HPM_P1;HPM_P2
2021/05/04 00:00:46;;;;;;;2.53;1.70;;;;;;;18.39;48.55;99905.59;2061666;28;20038;-65
2021/05/04 00:01:47;;;;;;;2.73;1.67;;;;;;;18.38;48.86;99900.31;2062005;28;20112;-66
2021/05/04 00:02:47;;;;;;;2.20;1.70;;;;;;;18.39;48.86;99896.56;2061896;28;20036;-66
2021/05/04 00:03:48;;;;;;;2.57;1.80;;;;;;;18.38;48.74;99901.16;2062067;28;20049;-66
2021/05/04 00:04:48;;;;;;;2.13;1.70;;;;;;;18.38;48.65;99901.16;2062097;28;20034;-65
2021/05/04 00:05:49;;;;;;;2.50;1.70;;;;;;;18.39;48.76;99896.56;2060986;28;20041;-66
2021/05/04 00:06:51;;;;;;;2.80;1.83;;;;;;;18.38;48.90;99901.16;2058359;28;20062;-67
2021/05/04 00:07:51;;;;;;;3.03;1.83;;;;;;;18.38;48.92;99892.97;2058935;28;20030;-66
2021/05/04 00:08:52;;;;;;;2.63;1.73;;;;;;;18.39;48.90;99900.13;2060774;28;20064;-66
2021/05/04 00:09:52;;;;;;;4.23;1.83;;;;;;;18.37;48.76;99894.00;2061853;28;20064;-66
2021/05/04 00:10:53;;;;;;;2.83;1.77;;;;;;;18.39;48.90;99891.09;2061560;28;20050;-66
2021/05/04 00:11:54;;;;;;;4.00;1.90;;;;;;;18.38;49.11;99883.94;2062520;28;20026;-66
2021/05/04 00:12:54;;;;;;;2.10;1.57;;;;;;;18.36;49.09;99881.34;2061504;28;20076;-66
2021/05/04 00:13:55;;;;;;;2.57;1.63;;;;;;;18.37;48.73;99883.09;2062127;28;20041;-66
2021/05/04 00:14:55;;;;;;;1.93;1.53;;;;;;;18.37;48.71;99880.34;2061984;28;20023;-66
2021/05/04 00:15:55;;;;;;;2.20;1.67;;;;;;;18.37;48.81;99885.81;2060909;28;20030;-66
2021/05/04 00:16:56;;;;;;;3.50;2.07;;;;;;;18.38;48.90;99879.34;2062601;28;20030;-66
2021/05/04 00:17:56;;;;;;;2.57;1.60;;;;;;;18.37;48.96;99880.34;2061039;28;20452;-66
2021/05/04 00:18:57;;;;;;;1.87;1.73;;;;;;;18.37;49.06;99880.34;2061096;28;20038;-66
2021/05/04 00:19:57;;;;;;;2.70;1.80;;;;;;;18.37;48.77;99882.19;2061992;28;20037;-66
2021/05/04 00:20:58;;;;;;;2.80;1.50;;;;;;;18.37;49.10;99874.91;2061675;28;20035;-66
2021/05/04 00:21:58;;;;;;;2.07;1.50;;;;;;;18.36;48.75;99870.44;2062400;28;20049;-66
2021/05/04 00:22:59;;;;;;;1.83;1.60;;;;;;;18.35;48.87;99874.19;2061868;28;20034;-66
2021/05/04 00:23:59;;;;;;;3.53;1.63;;;;;;;18.36;48.72;99870.44;2058422;28;20023;-66
2021/05/04 00:25:00;;;;;;;2.67;1.90;;;;;;;18.35;48.95;99876.91;2060460;28;20113;-65
2021/05/04 00:26:01;;;;;;;1.97;1.57;;;;;;;18.35;48.94;99874.19;2060683;28;20828;-66
2021/05/04 00:27:01;;;;;;;2.53;1.83;;;;;;;18.36;48.98;99875.03;2062342;28;20026;-66
2021/05/04 00:28:03;;;;;;;2.20;1.70;;;;;;;18.34;49.01;99880.63;2060687;28;20022;-66
2021/05/04 00:29:04;;;;;;;2.45;1.75;;;;;;;18.34;49.09;99875.19;2059295;28;20121;-66
2021/05/04 00:30:05;;;;;;;2.50;1.60;;;;;;;18.35;48.92;99876.06;2059837;28;20038;-66
2021/05/04 00:31:06;;;;;;;3.55;1.92;;;;;;;18.35;48.98;99879.63;2060640;28;20038;-66
2021/05/04 00:32:06;;;;;;;1.77;1.50;;;;;;;18.34;48.98;99877.91;2061885;28;20034;-66
2021/05/04 00:33:07;;;;;;;3.13;1.90;;;;;;;18.34;49.00;99872.44;2061371;28;20033;-66
2021/05/04 00:34:07;;;;;;;3.00;1.67;;;;;;;18.35;48.94;99876.06;2061940;28;20041;-64
2021/05/04 00:35:08;;;;;;;3.67;1.73;;;;;;;18.36;48.83;99875.03;2062367;28;20440;-65
2021/05/04 00:36:09;;;;;;;2.40;1.80;;;;;;;18.34;48.75;99875.19;2060316;28;20027;-64
2021/05/04 00:37:09;;;;;;;2.17;1.60;;;;;;;18.35;48.89;99870.59;2058965;28;20045;-66
2021/05/04 00:38:10;;;;;;;2.10;1.60;;;;;;;18.36;48.63;99872.31;2057917;28;20106;-66
2021/05/04 00:39:10;;;;;;;2.47;1.63;;;;;;;18.36;48.55;99872.31;2061977;28;20026;-64
2021/05/04 00:40:11;;;;;;;3.17;2.00;;;;;;;18.37;48.66;99874.00;2061924;28;20061;-64
2021/05/04 00:41:12;;;;;;;2.25;1.60;;;;;;;18.36;48.74;99867.69;2061538;28;20026;-64
2021/05/04 00:42:12;;;;;;;2.80;1.80;;;;;;;18.37;48.69;99866.72;2061794;28;20030;-64
2021/05/04 00:43:13;;;;;;;1.80;1.40;;;;;;;18.38;48.69;99862.09;2061950;28;20760;-64
2021/05/04 00:44:13;;;;;;;3.00;1.63;;;;;;;18.38;48.76;99864.84;2060910;28;20154;-64
2021/05/04 00:45:15;;;;;;;3.30;2.07;;;;;;;18.37;48.61;99866.72;2062164;28;20138;-64
2021/05/04 00:46:16;;;;;;;3.63;1.67;;;;;;;18.40;48.71;99865.53;2058947;28;20026;-65
2021/05/04 00:47:16;;;;;;;1.95;1.60;;;;;;;18.40;48.71;99871.00;2061131;28;20034;-64
2021/05/04 00:48:17;;;;;;;2.03;1.40;;;;;;;18.41;48.71;99868.09;2060756;28;20635;-64
2021/05/04 00:49:17;;;;;;;3.03;1.63;;;;;;;18.41;48.68;99867.25;2062212;28;20045;-64
2021/05/04 00:50:18;;;;;;;3.37;1.80;;;;;;;18.41;48.71;99859.91;2061092;28;20030;-64
2021/05/04 00:51:21;;;;;;;2.40;1.80;;;;;;;18.41;48.75;99861.78;2061554;28;20038;-65
2021/05/04 00:52:21;;;;;;;3.20;1.75;;;;;;;18.42;48.83;99864.38;2061925;28;20081;-64
2021/05/04 00:53:22;;;;;;;1.70;1.33;;;;;;;18.41;48.89;99864.53;2061121;28;20038;-64
2021/05/04 00:54:24;;;;;;;2.20;1.67;;;;;;;18.41;48.74;99857.19;2061725;28;20054;-64
2021/05/04 00:55:26;;;;;;;2.05;1.50;;;;;;;18.41;48.91;99856.34;2061231;28;20162;-64
2021/05/04 00:56:27;;;;;;;1.85;1.60;;;;;;;18.41;48.56;99851.72;2061556;28;20141;-64
2021/05/04 00:57:27;;;;;;;2.42;1.98;;;;;;;18.42;48.75;99858.94;2059534;28;20054;-64
2021/05/04 00:58:28;;;;;;;4.37;1.63;;;;;;;18.42;48.62;99853.47;2061478;28;20042;-64
2021/05/04 00:59:29;;;;;;;3.23;1.83;;;;;;;18.42;48.63;99848.00;2060587;28;20034;-64
2021/05/04 01:00:29;;;;;;;3.47;2.43;;;;;;;18.45;48.35;99843.22;2061229;28;20134;-64
2021/05/04 01:01:30;;;;;;;3.47;1.80;;;;;;;18.45;48.47;99845.97;2063741;28;20034;-64
2021/05/04 01:02:32;;;;;;;3.07;1.70;;;;;;;18.45;48.53;99840.50;2061762;28;20026;-63
2021/05/04 01:03:33;;;;;;;2.50;1.55;;;;;;;18.43;48.40;99844.25;2062981;28;20041;-64
2021/05/04 01:04:33;;;;;;;3.57;2.00;;;;;;;18.43;48.31;99838.78;2063659;28;20045;-64
2021/05/04 01:05:34;;;;;;;3.83;1.70;;;;;;;18.43;48.44;99843.41;2062570;28;20030;-64
2021/05/04 01:06:35;;;;;;;2.73;1.93;;;;;;;18.42;48.39;99839.81;2060909;28;20030;-64
2021/05/04 01:07:36;;;;;;;2.65;1.90;;;;;;;18.42;48.47;99842.56;2062183;28;20509;-64
2021/05/04 01:08:37;;;;;;;4.47;1.60;;;;;;;18.42;48.40;99833.47;2063300;28;20041;-64
2021/05/04 01:09:37;;;;;;;2.73;1.83;;;;;;;18.42;48.40;99839.81;2062643;28;20076;-63
2021/05/04 01:10:39;;;;;;;2.57;2.03;;;;;;;18.41;48.31;99838.09;2063560;28;20274;-64
2021/05/04 01:11:40;;;;;;;2.53;1.80;;;;;;;18.40;48.38;99833.66;2060647;28;20065;-63
2021/05/04 01:12:40;;;;;;;1.85;1.58;;;;;;;18.40;48.50;99822.72;2062623;28;20073;-65
2021/05/04 01:13:44;;;;;;;3.20;1.47;;;;;;;18.40;48.41;99822.72;2062692;28;20081;-66
2021/05/04 01:14:45;;;;;;;4.35;2.42;;;;;;;18.42;48.39;99830.75;2061995;28;20096;-66
2021/05/04 01:15:45;;;;;;;2.37;1.80;;;;;;;18.39;48.38;99812.81;2063163;28;20092;-66
2021/05/04 01:16:49;;;;;;;3.03;1.70;;;;;;;18.40;48.35;99821.88;2063592;28;20061;-66
2021/05/04 01:17:49;;;;;;;2.15;1.80;;;;;;;18.40;48.54;99817.28;2062736;28;20527;-66
2021/05/04 01:18:50;;;;;;;2.00;1.70;;;;;;;18.41;48.57;99818.13;2062964;28;20108;-66
2021/05/04 01:19:50;;;;;;;2.17;1.67;;;;;;;18.41;48.51;99813.53;2062830;28;20545;-66
2021/05/04 01:20:51;;;;;;;2.30;1.70;;;;;;;18.40;48.26;99817.28;2063416;28;20038;-66
2021/05/04 01:21:51;;;;;;;2.70;1.70;;;;;;;18.40;48.33;99822.72;2060942;28;20026;-66
2021/05/04 01:22:53;;;;;;;2.57;1.60;;;;;;;18.40;48.40;99811.81;2061155;28;20038;-66
2021/05/04 01:23:53;;;;;;;2.05;1.75;;;;;;;18.39;48.40;99815.53;2060879;28;20045;-64
2021/05/04 01:24:53;;;;;;;1.93;1.60;;;;;;;18.39;48.42;99818.28;2062339;28;20034;-63
2021/05/04 01:25:54;;;;;;;2.00;1.63;;;;;;;18.39;48.48;99811.97;2061821;28;20101;-64
2021/05/04 01:26:58;;;;;;;1.80;1.53;;;;;;;18.39;48.36;99815.53;2063322;28;20476;-64
2021/05/04 01:27:58;;;;;;;2.67;1.80;;;;;;;18.39;48.47;99815.53;2063022;28;20037;-64
2021/05/04 01:28:59;;;;;;;2.07;1.80;;;;;;;18.38;48.48;99819.28;2061967;28;20650;-64
2021/05/04 01:29:59;;;;;;;1.83;1.50;;;;;;;18.39;48.51;99810.09;2063199;28;20061;-64
2021/05/04 01:31:00;;;;;;;2.30;1.80;;;;;;;18.40;48.47;99813.69;2063148;28;20030;-64
2021/05/04 01:32:00;;;;;;;2.60;1.53;;;;;;;18.38;48.37;99818.44;2062690;28;20045;-66
2021/05/04 01:33:01;;;;;;;2.13;1.63;;;;;;;18.38;48.32;99822.03;2063081;28;20137;-66
2021/05/04 01:34:02;;;;;;;2.60;1.77;;;;;;;18.38;48.51;99819.28;2062365;28;20112;-66
2021/05/04 01:35:08;;;;;;;1.98;1.27;;;;;;;18.38;48.43;99812.97;2062395;28;20481;-66
2021/05/04 01:36:08;;;;;;;2.80;1.77;;;;;;;18.39;48.44;99831.06;2060575;28;20417;-66
2021/05/04 01:37:09;;;;;;;2.30;1.63;;;;;;;18.39;48.41;99826.47;2059821;28;20018;-66
2021/05/04 01:38:10;;;;;;;2.17;1.60;;;;;;;18.37;48.62;99819.44;2061487;28;20030;-66
2021/05/04 01:39:11;;;;;;;2.07;1.50;;;;;;;18.38;48.43;99823.91;2063408;28;20038;-66
2021/05/04 01:40:14;;;;;;;3.20;1.73;;;;;;;18.37;48.58;99814.88;2062898;28;20018;-66
2021/05/04 01:41:15;;;;;;;2.03;1.50;;;;;;;18.37;48.53;99812.13;2062752;28;20259;-66
2021/05/04 01:42:17;;;;;;;2.00;1.33;;;;;;;18.37;48.45;99806.69;2063488;28;20205;-64
2021/05/04 01:43:17;;;;;;;3.67;1.40;;;;;;;18.37;48.53;99812.13;2061051;28;20136;-64
2021/05/04 01:44:18;;;;;;;2.73;2.10;;;;;;;18.37;48.45;99811.25;2060792;28;20027;-64
2021/05/04 01:45:18;;;;;;;2.43;1.43;;;;;;;18.34;48.50;99812.41;2061592;28;20441;-65
2021/05/04 01:46:19;;;;;;;2.27;1.50;;;;;;;18.36;48.61;99799.47;2062646;28;20038;-64
2021/05/04 01:47:19;;;;;;;1.70;1.40;;;;;;;18.36;48.66;99804.94;2062293;28;20034;-64
2021/05/04 01:48:20;;;;;;;2.50;1.70;;;;;;;18.37;48.62;99806.69;2061603;28;20045;-64
2021/05/04 01:49:20;;;;;;;1.73;1.30;;;;;;;18.36;48.47;99810.41;2062823;28;20027;-64
2021/05/04 01:50:20;;;;;;;1.77;1.43;;;;;;;18.36;48.55;99810.41;2061604;28;20038;-64
2021/05/04 01:51:21;;;;;;;2.03;1.60;;;;;;;18.36;48.51;99810.41;2061451;28;20194;-65
2021/05/04 01:52:22;;;;;;;1.70;1.27;;;;;;;18.36;48.56;99804.09;2062384;28;20748;-64
2021/05/04 01:53:22;;;;;;;2.17;1.53;;;;;;;18.36;48.53;99815.84;2061363;28;20034;-64
2021/05/04 01:54:24;;;;;;;4.37;1.43;;;;;;;18.35;48.66;99811.41;2063634;28;20030;-64
2021/05/04 01:55:25;;;;;;;1.90;1.40;;;;;;;18.36;48.61;99818.59;2061358;28;20546;-64
2021/05/04 01:56:26;;;;;;;1.60;1.50;;;;;;;18.35;48.40;99814.16;2062601;28;20408;-63
2021/05/04 01:57:26;;;;;;;2.45;1.42;;;;;;;18.34;48.48;99812.41;2060326;28;20549;-64
2021/05/04 01:58:27;;;;;;;2.43;1.83;;;;;;;18.34;48.53;99812.41;2062295;28;20393;-64
2021/05/04 01:59:29;;;;;;;1.95;1.50;;;;;;;18.34;48.64;99812.41;2063197;28;20058;-64
2021/05/04 02:00:29;;;;;;;2.15;1.45;;;;;;;18.34;48.59;99812.41;2062617;28;20038;-64
2021/05/04 02:01:30;;;;;;;2.30;1.40;;;;;;;18.33;48.58;99810.72;2061974;28;20050;-64
2021/05/04 02:02:30;;;;;;;2.20;1.70;;;;;;;18.35;48.60;99813.28;2062354;28;20030;-64
2021/05/04 02:03:31;;;;;;;3.70;1.97;;;;;;;18.33;48.82;99807.97;2062808;28;20133;-64
2021/05/04 02:04:32;;;;;;;1.97;1.77;;;;;;;18.32;48.50;99811.69;2063208;28;20113;-66
2021/05/04 02:05:32;;;;;;;2.57;1.50;;;;;;;18.32;48.72;99808.97;2061642;28;20049;-66
2021/05/04 02:06:32;;;;;;;2.40;1.70;;;;;;;18.30;48.82;99805.56;2058051;28;20430;-66
2021/05/04 02:07:33;;;;;;;2.43;1.83;;;;;;;18.32;48.55;99805.38;2059249;28;20105;-66
2021/05/04 02:08:34;;;;;;;2.20;1.90;;;;;;;18.31;48.67;99795.50;2062721;28;20653;-66
2021/05/04 02:09:35;;;;;;;2.13;1.70;;;;;;;18.32;48.91;99798.06;2061404;28;21814;-66
2021/05/04 02:10:35;;;;;;;1.77;1.50;;;;;;;18.32;48.79;99799.94;2063300;28;20769;-66
2021/05/04 02:11:36;;;;;;;2.63;1.87;;;;;;;18.32;48.69;99806.25;2061432;28;20516;-66
2021/05/04 02:12:39;;;;;;;2.72;1.50;;;;;;;18.32;48.70;99808.97;2063235;28;20046;-66
2021/05/04 02:13:40;;;;;;;2.70;1.75;;;;;;;18.32;48.64;99798.06;2060306;28;20450;-66
2021/05/04 02:14:40;;;;;;;2.30;1.40;;;;;;;18.31;48.72;99795.50;2059628;28;20149;-66
2021/05/04 02:15:41;;;;;;;1.87;1.67;;;;;;;18.30;48.58;99805.56;2062384;28;20105;-65
2021/05/04 02:16:41;;;;;;;2.67;1.77;;;;;;;18.30;48.67;99805.56;2061570;28;20545;-66
2021/05/04 02:17:42;;;;;;;4.70;1.60;;;;;;;18.31;48.62;99796.34;2062721;28;20032;-66
2021/05/04 02:18:42;;;;;;;1.47;1.30;;;;;;;18.29;48.94;99792.91;2060077;28;20038;-66
2021/05/04 02:19:43;;;;;;;1.90;1.30;;;;;;;18.29;48.69;99790.19;2062253;28;20050;-67
2021/05/04 02:20:43;;;;;;;1.97;1.20;;;;;;;18.31;48.75;99807.25;2057979;28;20045;-66
2021/05/04 02:21:44;;;;;;;1.67;1.50;;;;;;;18.30;48.71;99800.09;2062616;28;20066;-66
2021/05/04 02:22:44;;;;;;;2.30;1.43;;;;;;;18.31;48.68;99809.13;2062340;28;20058;-66
2021/05/04 02:23:45;;;;;;;1.93;1.40;;;;;;;18.31;48.56;99810.00;2062353;28;20109;-66
2021/05/04 02:24:45;;;;;;;2.63;1.40;;;;;;;18.30;48.72;99808.28;2062468;28;20731;-66
2021/05/04 02:25:46;;;;;;;1.97;1.47;;;;;;;18.31;48.62;99804.53;2062542;28;20830;-66
2021/05/04 02:26:47;;;;;;;1.70;1.17;;;;;;;18.32;48.63;99802.66;2062142;28;20033;-67
2021/05/04 02:27:47;;;;;;;2.70;1.97;;;;;;;18.34;48.63;99806.09;2062019;28;20042;-66
2021/05/04 02:28:48;;;;;;;2.50;1.73;;;;;;;18.33;48.59;99799.78;2062627;28;20131;-66
2021/05/04 02:29:48;;;;;;;3.30;1.70;;;;;;;18.34;48.38;99796.03;2062410;28;20030;-64
2021/05/04 02:30:48;;;;;;;1.90;1.33;;;;;;;18.34;48.69;99804.22;2060730;28;20042;-64
2021/05/04 02:31:49;;;;;;;2.70;1.63;;;;;;;18.34;48.65;99806.09;2059113;28;20539;-64
2021/05/04 02:32:49;;;;;;;1.87;1.20;;;;;;;18.33;48.74;99799.78;2062847;28;20140;-64
2021/05/04 02:33:50;;;;;;;3.37;1.60;;;;;;;18.34;48.80;99804.22;2062161;28;20057;-64
2021/05/04 02:34:50;;;;;;;1.60;1.37;;;;;;;18.34;48.86;99795.19;2060121;28;20026;-65
2021/05/04 02:35:51;;;;;;;1.73;1.40;;;;;;;18.36;48.83;99795.91;2061937;28;20061;-64
2021/05/04 02:36:51;;;;;;;6.50;1.97;;;;;;;18.36;48.77;99804.94;2060841;28;20077;-64
2021/05/04 02:37:52;;;;;;;1.67;1.20;;;;;;;18.37;48.89;99801.22;2059634;28;20034;-64
2021/05/04 02:38:52;;;;;;;2.43;1.30;;;;;;;18.37;48.92;99801.22;2060375;28;20374;-64
2021/05/04 02:39:53;;;;;;;3.33;1.03;;;;;;;18.37;48.86;99800.34;2060450;28;20703;-64
2021/05/04 02:40:53;;;;;;;2.60;1.60;;;;;;;18.38;48.79;99796.63;2062919;28;20030;-63
2021/05/04 02:41:54;;;;;;;2.07;1.17;;;;;;;18.38;48.63;99794.72;2062348;28;20037;-64
2021/05/04 02:42:54;;;;;;;1.47;1.37;;;;;;;18.38;48.87;99797.47;2060860;28;20037;-64
2021/05/04 02:43:55;;;;;;;2.20;1.80;;;;;;;18.38;48.73;99792.00;2060933;28;20548;-64
2021/05/04 02:44:55;;;;;;;2.07;1.60;;;;;;;18.38;48.73;99794.72;2062514;28;20037;-64
2021/05/04 02:45:57;;;;;;;2.50;1.50;;;;;;;18.38;48.91;99794.72;2062996;28;20444;-64
2021/05/04 02:46:58;;;;;;;1.98;1.35;;;;;;;18.37;48.77;99794.88;2061325;28;20766;-64
2021/05/04 02:47:59;;;;;;;3.05;1.75;;;;;;;18.37;48.70;99801.22;2062454;28;20038;-64
2021/05/04 02:48:59;;;;;;;3.00;1.60;;;;;;;18.39;48.74;99792.84;2062501;28;20037;-64
2021/05/04 02:49:59;;;;;;;2.60;1.90;;;;;;;18.38;48.61;99786.53;2061427;28;20479;-64
2021/05/04 02:51:00;;;;;;;1.87;1.20;;;;;;;18.39;48.96;99793.72;2062710;28;20022;-64
2021/05/04 02:52:00;;;;;;;1.37;1.27;;;;;;;18.40;48.73;99794.59;2057901;28;20182;-64
2021/05/04 02:53:01;;;;;;;3.30;1.83;;;;;;;18.39;48.65;99790.97;2062102;28;20120;-64
2021/05/04 02:54:01;;;;;;;2.63;1.63;;;;;;;18.37;48.61;99790.31;2062195;28;20033;-63
2021/05/04 02:55:02;;;;;;;2.43;1.60;;;;;;;18.38;48.76;99791.16;2060147;28;20125;-64
2021/05/04 02:56:04;;;;;;;2.30;1.73;;;;;;;18.38;48.50;99791.16;2062052;28;20088;-64
2021/05/04 02:57:05;;;;;;;1.70;1.30;;;;;;;18.37;48.40;99795.75;2061505;28;20036;-64
2021/05/04 02:58:06;;;;;;;2.23;1.53;;;;;;;18.37;48.54;99795.75;2061270;28;20049;-64
2021/05/04 02:59:06;;;;;;;1.63;1.43;;;;;;;18.37;48.69;99801.22;2062210;28;20384;-65
2021/05/04 03:00:07;;;;;;;1.73;1.50;;;;;;;18.37;48.61;99795.75;2057250;28;20089;-64
2021/05/04 03:01:08;;;;;;;2.00;1.60;;;;;;;18.38;48.41;99796.63;2061150;28;20034;-64
2021/05/04 03:02:08;;;;;;;1.77;1.50;;;;;;;18.38;48.46;99792.00;2062480;28;20087;-64
2021/05/04 03:03:10;;;;;;;2.93;1.80;;;;;;;18.36;48.45;99788.56;2062139;28;20065;-64
2021/05/04 03:04:10;;;;;;;1.75;1.58;;;;;;;18.37;48.49;99790.31;2061997;28;20159;-65
2021/05/04 03:05:11;;;;;;;1.87;1.37;;;;;;;18.38;48.31;99786.53;2061812;28;20042;-64
2021/05/04 03:06:11;;;;;;;2.27;1.37;;;;;;;18.37;48.27;99790.31;2061610;28;20365;-64
2021/05/04 03:07:12;;;;;;;1.77;1.40;;;;;;;18.37;48.49;99794.88;2062326;28;20027;-63
2021/05/04 03:08:12;;;;;;;1.73;1.60;;;;;;;18.38;48.35;99797.47;2058174;28;20156;-64
2021/05/04 03:09:13;;;;;;;1.73;1.30;;;;;;;18.37;48.31;99795.75;2059836;28;20081;-64
2021/05/04 03:10:13;;;;;;;3.37;1.60;;;;;;;18.36;48.33;99788.56;2052515;28;20037;-65
2021/05/04 03:11:14;;;;;;;1.70;1.50;;;;;;;18.37;48.43;99793.03;2061766;28;20057;-64
2021/05/04 03:12:14;;;;;;;2.07;1.37;;;;;;;18.36;48.43;99788.56;2061622;28;20068;-64
2021/05/04 03:13:24;;;;;;;3.77;1.50;;;;;;;18.35;48.36;99786.84;2062035;28;20571;-64
2021/05/04 03:14:25;;;;;;;1.67;1.27;;;;;;;18.33;48.53;99782.56;2062125;28;20493;-64
2021/05/04 03:15:25;;;;;;;1.73;1.30;;;;;;;18.34;48.52;99784.28;2061458;28;20821;-64
2021/05/04 03:16:26;;;;;;;2.03;1.60;;;;;;;18.35;48.63;99781.41;2062468;28;20034;-63
2021/05/04 03:17:26;;;;;;;3.00;1.53;;;;;;;18.35;48.39;99780.56;2060931;28;20034;-64
2021/05/04 03:18:27;;;;;;;2.10;1.43;;;;;;;18.34;48.47;99787.00;2061769;28;20034;-64
2021/05/04 03:19:27;;;;;;;2.07;1.60;;;;;;;18.34;48.53;99785.13;2061554;28;20088;-64
2021/05/04 03:20:28;;;;;;;1.90;1.57;;;;;;;18.33;48.41;99783.41;2057309;28;20049;-64
2021/05/04 03:21:29;;;;;;;2.03;1.83;;;;;;;18.33;48.54;99782.56;2062273;28;20189;-64
2021/05/04 03:22:29;;;;;;;2.25;1.52;;;;;;;18.33;48.46;99783.41;2057703;28;20026;-64
2021/05/04 03:23:30;;;;;;;1.47;1.30;;;;;;;18.33;48.52;99780.69;2062587;28;20041;-64
2021/05/04 03:24:30;;;;;;;1.83;1.47;;;;;;;18.33;48.34;99780.69;2061743;28;20472;-64
2021/05/04 03:25:31;;;;;;;2.93;1.30;;;;;;;18.32;48.40;99778.94;2061088;28;20026;-64
2021/05/04 03:26:31;;;;;;;1.97;1.50;;;;;;;18.32;48.45;99776.22;2059867;28;20037;-64
2021/05/04 03:27:32;;;;;;;1.70;1.33;;;;;;;18.31;48.52;99774.53;2060126;28;20134;-65
2021/05/04 03:28:32;;;;;;;1.70;1.47;;;;;;;18.31;48.56;99776.41;2062629;28;20030;-64
2021/05/04 03:29:33;;;;;;;2.10;1.47;;;;;;;18.31;48.56;99779.97;2060233;28;20462;-64
2021/05/04 03:30:34;;;;;;;2.60;1.65;;;;;;;18.31;48.48;99779.97;2061588;28;20862;-64
2021/05/04 03:31:35;;;;;;;1.70;1.57;;;;;;;18.29;48.63;99776.53;2060004;28;20224;-64
2021/05/04 03:32:36;;;;;;;4.00;1.30;;;;;;;18.29;48.66;99775.69;2061585;28;20045;-64
2021/05/04 03:33:37;;;;;;;1.63;1.10;;;;;;;18.30;48.60;99772.81;2062469;28;20105;-65
2021/05/04 03:34:37;;;;;;;2.27;1.50;;;;;;;18.31;48.54;99773.66;2061921;28;20033;-64
2021/05/04 03:35:38;;;;;;;1.90;1.40;;;;;;;18.30;48.60;99772.81;2062422;28;20500;-64
2021/05/04 03:36:38;;;;;;;2.85;1.60;;;;;;;18.29;48.51;99771.09;2061418;28;20038;-64
2021/05/04 03:37:39;;;;;;;3.10;1.73;;;;;;;18.29;48.69;99771.09;2059248;28;20053;-64
2021/05/04 03:38:39;;;;;;;1.60;1.43;;;;;;;18.29;48.42;99771.09;2058834;28;20054;-64
2021/05/04 03:39:39;;;;;;;1.70;1.13;;;;;;;18.29;48.43;99770.22;2058845;28;20128;-63
2021/05/04 03:40:40;;;;;;;2.13;1.67;;;;;;;18.29;48.52;99771.09;2060661;28;20038;-64
2021/05/04 03:41:40;;;;;;;2.50;1.47;;;;;;;18.29;48.68;99771.09;2056871;28;20065;-63
2021/05/04 03:42:42;;;;;;;1.73;1.30;;;;;;;18.30;48.63;99767.38;2061439;28;20041;-64
2021/05/04 03:43:43;;;;;;;1.95;1.58;;;;;;;18.30;48.40;99770.09;2061481;28;20061;-63
2021/05/04 03:44:43;;;;;;;1.03;0.93;;;;;;;18.29;48.66;99771.09;2061624;28;20141;-64
2021/05/04 03:45:43;;;;;;;2.33;1.33;;;;;;;18.29;48.61;99776.53;2061600;28;20616;-64
2021/05/04 03:46:44;;;;;;;3.17;1.70;;;;;;;18.28;48.56;99777.56;2061833;28;20033;-64
2021/05/04 03:47:46;;;;;;;1.87;1.27;;;;;;;18.27;48.68;99770.38;2061195;28;20029;-64
2021/05/04 03:48:46;;;;;;;3.40;1.85;;;;;;;18.28;48.60;99768.53;2057731;28;20053;-64
2021/05/04 03:49:46;;;;;;;2.27;1.40;;;;;;;18.28;48.42;99768.53;2061428;28;20065;-64
2021/05/04 03:50:48;;;;;;;1.80;1.33;;;;;;;18.28;48.57;99758.47;2061088;28;20143;-64
2021/05/04 03:51:48;;;;;;;2.53;1.60;;;;;;;18.28;48.56;99766.66;2060504;28;20086;-64
2021/05/04 03:52:50;;;;;;;2.23;1.90;;;;;;;18.28;48.56;99768.53;2060078;28;20768;-64
2021/05/04 03:53:50;;;;;;;1.90;1.52;;;;;;;18.28;48.56;99766.66;2062578;28;20045;-64
2021/05/04 03:54:51;;;;;;;1.60;1.43;;;;;;;18.27;48.70;99770.38;2061603;28;20131;-64
2021/05/04 03:55:51;;;;;;;2.03;1.50;;;;;;;18.28;48.49;99769.38;2060709;28;20034;-64
2021/05/04 03:56:52;;;;;;;1.60;1.20;;;;;;;18.28;48.62;99768.53;2062196;28;20030;-64
2021/05/04 03:57:53;;;;;;;2.03;1.53;;;;;;;18.29;48.67;99764.78;2061578;28;20053;-64
2021/05/04 03:58:53;;;;;;;1.40;1.30;;;;;;;18.28;48.59;99766.66;2061003;28;20038;-64
2021/05/04 03:59:54;;;;;;;1.70;1.30;;;;;;;18.27;48.67;99767.63;2060053;28;20053;-64
2021/05/04 04:00:54;;;;;;;1.60;1.30;;;;;;;18.29;48.49;99765.63;2060270;28;20026;-64
2021/05/04 04:01:55;;;;;;;1.47;1.13;;;;;;;18.29;48.51;99760.16;2058339;28;20035;-63
2021/05/04 04:02:55;;;;;;;1.20;1.10;;;;;;;18.29;48.59;99759.31;2060978;28;20880;-64
2021/05/04 04:03:56;;;;;;;2.07;1.30;;;;;;;18.27;48.62;99766.78;2060942;28;20042;-64
2021/05/04 04:04:56;;;;;;;3.73;1.50;;;;;;;18.28;48.70;99763.91;2061715;28;20034;-63
2021/05/04 04:05:57;;;;;;;2.87;1.40;;;;;;;18.26;48.70;99765.94;2062293;28;20030;-65
2021/05/04 04:06:57;;;;;;;2.23;1.40;;;;;;;18.29;48.78;99765.63;2060024;28;20113;-64
2021/05/04 04:07:58;;;;;;;2.60;1.57;;;;;;;18.29;48.83;99770.22;2061633;28;20040;-64
2021/05/04 04:08:58;;;;;;;3.00;1.60;;;;;;;18.28;48.77;99766.66;2059312;28;20045;-64
2021/05/04 04:09:59;;;;;;;2.03;1.40;;;;;;;18.30;48.93;99767.38;2061427;28;20041;-64
2021/05/04 04:10:59;;;;;;;1.17;1.00;;;;;;;18.31;48.81;99774.53;2061935;28;20041;-64
2021/05/04 04:11:59;;;;;;;3.77;1.83;;;;;;;18.31;48.91;99771.78;2061836;28;20026;-64
2021/05/04 04:13:00;;;;;;;1.70;1.60;;;;;;;18.31;48.84;99769.06;2061713;28;20520;-64
2021/05/04 04:14:00;;;;;;;2.63;1.80;;;;;;;18.31;48.74;99768.22;2062126;28;20041;-64
2021/05/04 04:15:01;;;;;;;1.97;1.57;;;;;;;18.31;48.98;99774.53;2059885;28;20174;-64
2021/05/04 04:16:02;;;;;;;2.03;1.40;;;;;;;18.31;49.00;99769.06;2061945;28;20065;-64
2021/05/04 04:17:02;;;;;;;2.53;1.33;;;;;;;18.33;48.64;99769.78;2060742;28;20050;-64
2021/05/04 04:18:03;;;;;;;1.60;1.43;;;;;;;18.33;48.74;99772.50;2061637;28;20172;-64
2021/05/04 04:19:03;;;;;;;1.60;1.30;;;;;;;18.32;48.56;99778.94;2062215;28;20378;-64
2021/05/04 04:20:06;;;;;;;1.47;1.10;;;;;;;18.32;48.88;99773.50;2059909;28;20184;-64
2021/05/04 04:21:06;;;;;;;2.10;1.63;;;;;;;18.35;48.71;99775.94;2061816;28;20124;-64
2021/05/04 04:22:07;;;;;;;1.80;1.40;;;;;;;18.35;48.75;99775.09;2060831;28;20042;-64
2021/05/04 04:23:07;;;;;;;2.50;1.20;;;;;;;18.34;48.96;99774.22;2062134;28;20027;-64
2021/05/04 04:24:08;;;;;;;2.00;1.37;;;;;;;18.33;48.67;99775.22;2061275;28;20061;-64
2021/05/04 04:25:09;;;;;;;1.60;1.27;;;;;;;18.33;48.61;99777.97;2061271;28;20097;-65
2021/05/04 04:26:10;;;;;;;2.50;1.17;;;;;;;18.34;48.77;99781.53;2056507;28;20776;-64
2021/05/04 04:27:10;;;;;;;2.27;1.57;;;;;;;18.35;48.60;99777.81;2050250;28;20657;-64
2021/05/04 04:28:11;;;;;;;1.80;1.47;;;;;;;18.33;48.63;99780.69;2057301;28;20104;-64
2021/05/04 04:29:11;;;;;;;2.17;1.87;;;;;;;18.33;48.73;99782.56;2061672;28;20489;-64
2021/05/04 04:30:13;;;;;;;1.50;1.10;;;;;;;18.33;48.67;99783.41;2062078;28;20026;-64
2021/05/04 04:31:14;;;;;;;2.08;1.23;;;;;;;18.35;48.75;99781.41;2060633;28;20084;-64
2021/05/04 04:32:14;;;;;;;1.77;1.10;;;;;;;18.33;48.57;99783.41;2060419;28;20082;-64
2021/05/04 04:33:14;;;;;;;5.07;1.60;;;;;;;18.34;48.72;99784.28;2062198;28;20038;-64
2021/05/04 04:34:15;;;;;;;1.77;1.30;;;;;;;18.33;48.65;99783.41;2058083;28;20126;-64
2021/05/04 04:35:16;;;;;;;2.17;1.20;;;;;;;18.34;48.68;99784.28;2059499;28;20026;-64
2021/05/04 04:36:16;;;;;;;1.90;1.40;;;;;;;18.33;48.64;99777.97;2062525;28;20031;-64
2021/05/04 04:37:17;;;;;;;1.70;1.50;;;;;;;18.34;48.71;99779.66;2062228;28;20619;-64
2021/05/04 04:38:19;;;;;;;2.73;1.63;;;;;;;18.34;48.51;99782.41;2063737;28;20125;-64
2021/05/04 04:39:19;;;;;;;1.63;1.17;;;;;;;18.33;48.55;99780.69;2059114;28;20034;-64
2021/05/04 04:40:19;;;;;;;2.17;1.70;;;;;;;18.33;48.57;99788.88;2062795;28;20038;-64
2021/05/04 04:41:20;;;;;;;3.40;1.30;;;;;;;18.33;48.45;99782.56;2062133;28;20095;-67
2021/05/04 04:42:20;;;;;;;1.60;1.10;;;;;;;18.32;48.46;99787.13;2063939;28;20413;-66
2021/05/04 04:43:21;;;;;;;1.80;1.40;;;;;;;18.32;48.36;99786.28;2062257;28;20038;-66
2021/05/04 04:44:21;;;;;;;2.63;1.17;;;;;;;18.32;48.61;99787.13;2062927;28;20026;-67
2021/05/04 04:45:22;;;;;;;2.73;1.27;;;;;;;18.32;48.39;99781.69;2062284;28;20591;-66
2021/05/04 04:46:22;;;;;;;2.67;1.50;;;;;;;18.32;48.55;99781.69;2062875;28;20022;-66